Terminal Aerodrome Forecast
Issued by NWS

Home | Current Version | Previous Version | Graphics & Text | Print | Product List | Glossary On
Versions: 1 2 3 4 5 6 7 8 9 10 11 12 13 14 15 16 17 18 19 20 21 22
000
FTUS43 KABR 230301 AAE
TAFMBG
TAF AMD
KMBG 230301Z 2303/2324 29019G31KT P6SM VCTS BKN070CB
      TEMPO 2303/2305 1/2SM +TSRA BKN014CB
     FM230500 30008KT P6SM OVC080
     FM231000 28006KT P6SM SCT200=

USA.gov is the U.S. government's official web portal to all federal, state and local government web resources and services.